sensor_id;sensor_type;location;lat;lon;timestamp;temperature;humidity
13123;DHT22;6627;50.920;12.050;2023-12-20T00:00:20;5.20;99.90
13123;DHT22;6627;50.920;12.050;2023-12-20T00:03:05;5.20;99.90
13123;DHT22;6627;50.920;12.050;2023-12-20T00:05:46;5.20;99.90
13123;DHT22;6627;50.920;12.050;2023-12-20T00:08:28;5.20;99.90
13123;DHT22;6627;50.920;12.050;2023-12-20T00:11:08;5.20;99.90
13123;DHT22;6627;50.920;12.050;2023-12-20T00:13:35;5.20;99.90
13123;DHT22;6627;50.920;12.050;2023-12-20T00:16:04;5.20;99.90
13123;DHT22;6627;50.920;12.050;2023-12-20T00:18:32;5.20;99.90
13123;DHT22;6627;50.920;12.050;2023-12-20T00:21:06;5.20;99.90
13123;DHT22;6627;50.920;12.050;2023-12-20T00:23:33;5.30;99.90
13123;DHT22;6627;50.920;12.050;2023-12-20T00:26:09;5.20;99.90
13123;DHT22;6627;50.920;12.050;2023-12-20T00:28:56;5.20;99.90
13123;DHT22;6627;50.920;12.050;2023-12-20T00:31:35;5.20;99.90
13123;DHT22;6627;50.920;12.050;2023-12-20T00:34:21;5.20;99.90
13123;DHT22;6627;50.920;12.050;2023-12-20T00:36:57;5.20;99.90
13123;DHT22;6627;50.920;12.050;2023-12-20T00:39:31;5.20;99.90
13123;DHT22;6627;50.920;12.050;2023-12-20T00:44:56;5.20;99.90
13123;DHT22;6627;50.920;12.050;2023-12-20T00:47:25;5.20;99.90
13123;DHT22;6627;50.920;12.050;2023-12-20T00:49:58;5.20;99.90
13123;DHT22;6627;50.920;12.050;2023-12-20T00:52:42;5.20;99.90
13123;DHT22;6627;50.920;12.050;2023-12-20T00:55:17;5.40;99.90
13123;DHT22;6627;50.920;12.050;2023-12-20T00:57:59;5.20;99.90
13123;DHT22;6627;50.920;12.050;2023-12-20T01:00:29;5.20;99.90
13123;DHT22;6627;50.920;12.050;2023-12-20T01:02:59;5.20;99.90
13123;DHT22;6627;50.920;12.050;2023-12-20T01:05:29;5.20;99.90
13123;DHT22;6627;50.920;12.050;2023-12-20T01:08:07;5.20;99.90
13123;DHT22;6627;50.920;12.050;2023-12-20T01:10:43;5.20;99.90
13123;DHT22;6627;50.920;12.050;2023-12-20T01:13:16;5.20;99.90
13123;DHT22;6627;50.920;12.050;2023-12-20T01:15:43;5.20;99.90
13123;DHT22;6627;50.920;12.050;2023-12-20T01:18:15;5.20;99.90
13123;DHT22;6627;50.920;12.050;2023-12-20T01:21:02;5.20;99.90
13123;DHT22;6627;50.920;12.050;2023-12-20T01:23:30;5.20;99.90
13123;DHT22;6627;50.920;12.050;2023-12-20T01:26:01;5.20;99.90
13123;DHT22;6627;50.920;12.050;2023-12-20T01:28:39;5.20;99.90
13123;DHT22;6627;50.920;12.050;2023-12-20T01:31:08;5.20;99.90
13123;DHT22;6627;50.920;12.050;2023-12-20T01:33:36;5.10;99.90
13123;DHT22;6627;50.920;12.050;2023-12-20T01:36:14;5.20;99.90
13123;DHT22;6627;50.920;12.050;2023-12-20T01:38:41;5.20;99.90
13123;DHT22;6627;50.920;12.050;2023-12-20T01:41:19;5.20;99.90
13123;DHT22;6627;50.920;12.050;2023-12-20T01:43:49;5.20;99.90
13123;DHT22;6627;50.920;12.050;2023-12-20T01:46:17;5.20;99.90
13123;DHT22;6627;50.920;12.050;2023-12-20T01:48:47;5.20;99.90
13123;DHT22;6627;50.920;12.050;2023-12-20T01:51:15;5.20;99.90
13123;DHT22;6627;50.920;12.050;2023-12-20T01:54:02;5.20;99.90
13123;DHT22;6627;50.920;12.050;2023-12-20T01:56:33;5.30;99.90
13123;DHT22;6627;50.920;12.050;2023-12-20T01:59:10;5.20;99.90
13123;DHT22;6627;50.920;12.050;2023-12-20T02:04:19;5.10;99.90
13123;DHT22;6627;50.920;12.050;2023-12-20T02:06:53;5.10;99.90
13123;DHT22;6627;50.920;12.050;2023-12-20T02:09:24;5.10;99.90
13123;DHT22;6627;50.920;12.050;2023-12-20T02:11:55;5.00;99.90
13123;DHT22;6627;50.920;12.050;2023-12-20T02:14:32;4.90;99.90
13123;DHT22;6627;50.920;12.050;2023-12-20T02:17:00;5.00;99.90
13123;DHT22;6627;50.920;12.050;2023-12-20T02:19:44;4.90;99.90
13123;DHT22;6627;50.920;12.050;2023-12-20T02:22:22;5.00;99.90
13123;DHT22;6627;50.920;12.050;2023-12-20T02:24:58;5.00;99.90
13123;DHT22;6627;50.920;12.050;2023-12-20T02:27:25;5.10;99.90
13123;DHT22;6627;50.920;12.050;2023-12-20T02:30:04;5.00;99.90
13123;DHT22;6627;50.920;12.050;2023-12-20T02:32:35;5.10;99.90
13123;DHT22;6627;50.920;12.050;2023-12-20T02:35:02;5.10;99.90
13123;DHT22;6627;50.920;12.050;2023-12-20T02:37:32;5.10;99.90
13123;DHT22;6627;50.920;12.050;2023-12-20T02:40:06;5.10;99.90
13123;DHT22;6627;50.920;12.050;2023-12-20T02:42:40;5.10;99.90
13123;DHT22;6627;50.920;12.050;2023-12-20T02:45:27;5.00;99.90
13123;DHT22;6627;50.920;12.050;2023-12-20T02:48:00;5.00;99.90
13123;DHT22;6627;50.920;12.050;2023-12-20T02:50:27;5.10;99.90
13123;DHT22;6627;50.920;12.050;2023-12-20T02:53:03;5.20;99.90
13123;DHT22;6627;50.920;12.050;2023-12-20T02:55:30;5.00;99.90
13123;DHT22;6627;50.920;12.050;2023-12-20T02:58:01;5.10;99.90
13123;DHT22;6627;50.920;12.050;2023-12-20T03:00:31;5.10;99.90
13123;DHT22;6627;50.920;12.050;2023-12-20T03:02:59;5.00;99.90
13123;DHT22;6627;50.920;12.050;2023-12-20T03:05:46;5.00;99.90
13123;DHT22;6627;50.920;12.050;2023-12-20T03:08:17;4.90;99.90
13123;DHT22;6627;50.920;12.050;2023-12-20T03:10:49;5.20;99.90
13123;DHT22;6627;50.920;12.050;2023-12-20T03:13:25;4.90;99.90
13123;DHT22;6627;50.920;12.050;2023-12-20T03:15:53;4.90;99.90
13123;DHT22;6627;50.920;12.050;2023-12-20T03:18:20;4.90;99.90
13123;DHT22;6627;50.920;12.050;2023-12-20T03:21:07;4.90;99.90
13123;DHT22;6627;50.920;12.050;2023-12-20T03:23:36;4.90;99.90
13123;DHT22;6627;50.920;12.050;2023-12-20T03:26:15;4.90;99.90
13123;DHT22;6627;50.920;12.050;2023-12-20T03:28:42;4.90;99.90
13123;DHT22;6627;50.920;12.050;2023-12-20T03:31:13;4.90;99.90
13123;DHT22;6627;50.920;12.050;2023-12-20T03:33:51;4.90;99.90
13123;DHT22;6627;50.920;12.050;2023-12-20T03:36:20;4.90;99.90
13123;DHT22;6627;50.920;12.050;2023-12-20T03:38:51;4.80;99.90
13123;DHT22;6627;50.920;12.050;2023-12-20T03:41:24;4.80;99.90
13123;DHT22;6627;50.920;12.050;2023-12-20T03:44:11;4.70;99.90
13123;DHT22;6627;50.920;12.050;2023-12-20T03:46:58;4.80;99.90
13123;DHT22;6627;50.920;12.050;2023-12-20T03:52:16;4.70;99.90
13123;DHT22;6627;50.920;12.050;2023-12-20T03:54:45;4.80;99.90
13123;DHT22;6627;50.920;12.050;2023-12-20T03:57:12;4.80;99.90
13123;DHT22;6627;50.920;12.050;2023-12-20T03:59:44;4.80;99.90
13123;DHT22;6627;50.920;12.050;2023-12-20T04:02:19;4.80;99.90
13123;DHT22;6627;50.920;12.050;2023-12-20T04:04:50;4.80;99.90
13123;DHT22;6627;50.920;12.050;2023-12-20T04:07:32;4.80;99.90
13123;DHT22;6627;50.920;12.050;2023-12-20T04:10:11;4.80;99.90
13123;DHT22;6627;50.920;12.050;2023-12-20T04:15:15;4.80;99.90
13123;DHT22;6627;50.920;12.050;2023-12-20T04:18:02;4.80;99.90
13123;DHT22;6627;50.920;12.050;2023-12-20T04:20:34;4.80;99.90
13123;DHT22;6627;50.920;12.050;2023-12-20T04:23:01;4.90;99.90
13123;DHT22;6627;50.920;12.050;2023-12-20T04:25:31;4.80;99.90
13123;DHT22;6627;50.920;12.050;2023-12-20T04:28:17;4.80;99.90
13123;DHT22;6627;50.920;12.050;2023-12-20T04:30:49;4.80;99.90
13123;DHT22;6627;50.920;12.050;2023-12-20T04:33:22;4.80;99.90
13123;DHT22;6627;50.920;12.050;2023-12-20T04:35:55;4.90;99.90
13123;DHT22;6627;50.920;12.050;2023-12-20T04:38:43;4.90;99.90
13123;DHT22;6627;50.920;12.050;2023-12-20T04:41:11;5.00;99.90
13123;DHT22;6627;50.920;12.050;2023-12-20T04:43:52;4.90;99.90
13123;DHT22;6627;50.920;12.050;2023-12-20T04:46:24;4.90;99.90
13123;DHT22;6627;50.920;12.050;2023-12-20T04:49:11;5.00;99.90
13123;DHT22;6627;50.920;12.050;2023-12-20T04:51:58;5.00;99.90
13123;DHT22;6627;50.920;12.050;2023-12-20T04:54:30;5.00;99.90
13123;DHT22;6627;50.920;12.050;2023-12-20T04:57:00;5.30;99.90
13123;DHT22;6627;50.920;12.050;2023-12-20T04:59:27;5.00;99.90
13123;DHT22;6627;50.920;12.050;2023-12-20T05:02:09;5.00;99.90
13123;DHT22;6627;50.920;12.050;2023-12-20T05:04:38;5.00;99.90
13123;DHT22;6627;50.920;12.050;2023-12-20T05:07:09;5.10;99.90
13123;DHT22;6627;50.920;12.050;2023-12-20T05:12:40;5.10;99.90
13123;DHT22;6627;50.920;12.050;2023-12-20T05:15:21;5.10;99.90
13123;DHT22;6627;50.920;12.050;2023-12-20T05:18:07;5.20;99.90
13123;DHT22;6627;50.920;12.050;2023-12-20T05:20:54;5.20;99.90
13123;DHT22;6627;50.920;12.050;2023-12-20T05:23:22;5.20;99.90
13123;DHT22;6627;50.920;12.050;2023-12-20T05:26:09;5.40;99.90
13123;DHT22;6627;50.920;12.050;2023-12-20T05:28:57;5.20;99.90
13123;DHT22;6627;50.920;12.050;2023-12-20T05:31:24;5.20;99.90
13123;DHT22;6627;50.920;12.050;2023-12-20T05:34:06;5.30;99.90
13123;DHT22;6627;50.920;12.050;2023-12-20T05:36:43;5.30;99.90
13123;DHT22;6627;50.920;12.050;2023-12-20T05:39:11;5.20;99.90
13123;DHT22;6627;50.920;12.050;2023-12-20T05:41:38;5.20;99.90
13123;DHT22;6627;50.920;12.050;2023-12-20T05:44:07;5.20;99.90
13123;DHT22;6627;50.920;12.050;2023-12-20T05:46:41;5.20;99.90
13123;DHT22;6627;50.920;12.050;2023-12-20T05:49:22;5.40;99.90
13123;DHT22;6627;50.920;12.050;2023-12-20T05:51:50;5.20;99.90
13123;DHT22;6627;50.920;12.050;2023-12-20T05:54:18;5.20;99.90
13123;DHT22;6627;50.920;12.050;2023-12-20T05:56:47;5.20;99.90
13123;DHT22;6627;50.920;12.050;2023-12-20T05:59:16;5.30;99.90
13123;DHT22;6627;50.920;12.050;2023-12-20T06:01:44;5.30;99.90
13123;DHT22;6627;50.920;12.050;2023-12-20T06:04:11;5.60;99.90
13123;DHT22;6627;50.920;12.050;2023-12-20T06:06:41;5.30;99.90
13123;DHT22;6627;50.920;12.050;2023-12-20T06:09:09;5.30;99.90
13123;DHT22;6627;50.920;12.050;2023-12-20T06:11:36;5.40;99.90
13123;DHT22;6627;50.920;12.050;2023-12-20T06:14:04;5.50;99.90
13123;DHT22;6627;50.920;12.050;2023-12-20T06:16:33;5.40;99.90
13123;DHT22;6627;50.920;12.050;2023-12-20T06:19:05;5.30;99.90
13123;DHT22;6627;50.920;12.050;2023-12-20T06:21:41;5.40;99.90
13123;DHT22;6627;50.920;12.050;2023-12-20T06:24:28;5.40;99.90
13123;DHT22;6627;50.920;12.050;2023-12-20T06:26:55;5.40;99.90
13123;DHT22;6627;50.920;12.050;2023-12-20T06:29:23;5.40;99.90
13123;DHT22;6627;50.920;12.050;2023-12-20T06:32:07;5.40;99.90
13123;DHT22;6627;50.920;12.050;2023-12-20T06:34:35;5.40;99.90
13123;DHT22;6627;50.920;12.050;2023-12-20T06:37:03;5.40;99.90
13123;DHT22;6627;50.920;12.050;2023-12-20T06:39:30;5.40;99.90
13123;DHT22;6627;50.920;12.050;2023-12-20T06:41:59;5.40;99.90
13123;DHT22;6627;50.920;12.050;2023-12-20T06:44:27;5.40;99.90
13123;DHT22;6627;50.920;12.050;2023-12-20T06:46:54;5.50;99.90
13123;DHT22;6627;50.920;12.050;2023-12-20T06:49:22;5.50;99.90
13123;DHT22;6627;50.920;12.050;2023-12-20T06:51:50;5.50;99.90
13123;DHT22;6627;50.920;12.050;2023-12-20T06:54:17;5.50;99.90
13123;DHT22;6627;50.920;12.050;2023-12-20T06:56:44;5.50;99.90
13123;DHT22;6627;50.920;12.050;2023-12-20T06:59:11;5.50;99.90
13123;DHT22;6627;50.920;12.050;2023-12-20T07:01:48;5.40;99.90
13123;DHT22;6627;50.920;12.050;2023-12-20T07:04:16;5.40;99.90
13123;DHT22;6627;50.920;12.050;2023-12-20T07:06:47;5.50;99.90
13123;DHT22;6627;50.920;12.050;2023-12-20T07:09:18;5.40;99.90
13123;DHT22;6627;50.920;12.050;2023-12-20T07:11:45;5.40;99.90
13123;DHT22;6627;50.920;12.050;2023-12-20T07:14:12;5.50;99.90
13123;DHT22;6627;50.920;12.050;2023-12-20T07:16:40;5.40;99.90
13123;DHT22;6627;50.920;12.050;2023-12-20T07:19:07;5.50;99.90
13123;DHT22;6627;50.920;12.050;2023-12-20T07:21:34;5.50;99.90
13123;DHT22;6627;50.920;12.050;2023-12-20T07:24:03;5.50;99.90
13123;DHT22;6627;50.920;12.050;2023-12-20T07:26:30;5.50;99.90
13123;DHT22;6627;50.920;12.050;2023-12-20T07:28:58;5.50;99.90
13123;DHT22;6627;50.920;12.050;2023-12-20T07:31:25;5.50;99.90
13123;DHT22;6627;50.920;12.050;2023-12-20T07:33:54;5.50;99.90
13123;DHT22;6627;50.920;12.050;2023-12-20T07:36:21;5.50;99.90
13123;DHT22;6627;50.920;12.050;2023-12-20T07:38:49;5.50;99.90
13123;DHT22;6627;50.920;12.050;2023-12-20T07:41:18;5.50;99.90
13123;DHT22;6627;50.920;12.050;2023-12-20T07:43:54;5.40;99.90
13123;DHT22;6627;50.920;12.050;2023-12-20T07:46:42;5.50;99.90
13123;DHT22;6627;50.920;12.050;2023-12-20T07:51:37;5.50;99.90
13123;DHT22;6627;50.920;12.050;2023-12-20T07:54:17;5.50;99.90
13123;DHT22;6627;50.920;12.050;2023-12-20T07:57:05;5.50;99.90
13123;DHT22;6627;50.920;12.050;2023-12-20T07:59:52;5.50;99.90
13123;DHT22;6627;50.920;12.050;2023-12-20T08:02:37;5.40;99.90
13123;DHT22;6627;50.920;12.050;2023-12-20T08:05:05;5.40;99.90
13123;DHT22;6627;50.920;12.050;2023-12-20T08:07:34;5.40;99.90
13123;DHT22;6627;50.920;12.050;2023-12-20T08:10:02;5.40;99.90
13123;DHT22;6627;50.920;12.050;2023-12-20T08:12:48;5.50;99.90
13123;DHT22;6627;50.920;12.050;2023-12-20T08:15:27;5.50;99.90
13123;DHT22;6627;50.920;12.050;2023-12-20T08:18:03;5.50;99.90
13123;DHT22;6627;50.920;12.050;2023-12-20T08:20:31;5.50;99.90
13123;DHT22;6627;50.920;12.050;2023-12-20T08:22:58;5.50;99.90
13123;DHT22;6627;50.920;12.050;2023-12-20T08:25:26;5.50;99.90
13123;DHT22;6627;50.920;12.050;2023-12-20T08:28:06;5.50;99.90
13123;DHT22;6627;50.920;12.050;2023-12-20T08:30:33;5.50;99.90
13123;DHT22;6627;50.920;12.050;2023-12-20T08:33:00;5.60;99.90
13123;DHT22;6627;50.920;12.050;2023-12-20T08:35:28;5.60;99.90
13123;DHT22;6627;50.920;12.050;2023-12-20T08:37:56;5.60;99.90
13123;DHT22;6627;50.920;12.050;2023-12-20T08:40:23;5.60;99.90
13123;DHT22;6627;50.920;12.050;2023-12-20T08:42:50;5.60;99.90
13123;DHT22;6627;50.920;12.050;2023-12-20T08:45:19;5.80;99.90
13123;DHT22;6627;50.920;12.050;2023-12-20T08:47:47;5.90;99.90
13123;DHT22;6627;50.920;12.050;2023-12-20T08:50:14;5.90;99.90
13123;DHT22;6627;50.920;12.050;2023-12-20T08:52:41;6.10;99.90
13123;DHT22;6627;50.920;12.050;2023-12-20T08:55:11;6.00;99.90
13123;DHT22;6627;50.920;12.050;2023-12-20T08:57:41;6.00;99.90
13123;DHT22;6627;50.920;12.050;2023-12-20T09:00:10;6.00;99.90
13123;DHT22;6627;50.920;12.050;2023-12-20T09:02:46;6.00;99.90
13123;DHT22;6627;50.920;12.050;2023-12-20T09:05:29;5.90;99.90
13123;DHT22;6627;50.920;12.050;2023-12-20T09:07:57;6.00;99.90
13123;DHT22;6627;50.920;12.050;2023-12-20T09:10:25;6.00;99.90
13123;DHT22;6627;50.920;12.050;2023-12-20T09:12:53;6.30;99.90
13123;DHT22;6627;50.920;12.050;2023-12-20T09:15:23;6.10;99.90
13123;DHT22;6627;50.920;12.050;2023-12-20T09:17:58;6.20;99.90
13123;DHT22;6627;50.920;12.050;2023-12-20T09:20:46;6.60;99.90
13123;DHT22;6627;50.920;12.050;2023-12-20T09:23:19;6.40;99.90
13123;DHT22;6627;50.920;12.050;2023-12-20T09:25:46;6.60;99.90
13123;DHT22;6627;50.920;12.050;2023-12-20T09:28:14;6.40;99.90
13123;DHT22;6627;50.920;12.050;2023-12-20T09:31:01;6.40;99.90
13123;DHT22;6627;50.920;12.050;2023-12-20T09:33:50;6.40;99.90
13123;DHT22;6627;50.920;12.050;2023-12-20T09:36:28;6.40;99.90
13123;DHT22;6627;50.920;12.050;2023-12-20T09:39:10;6.40;99.90
13123;DHT22;6627;50.920;12.050;2023-12-20T09:41:39;6.60;99.90
13123;DHT22;6627;50.920;12.050;2023-12-20T09:44:18;6.60;99.90
13123;DHT22;6627;50.920;12.050;2023-12-20T09:46:53;6.70;99.90
13123;DHT22;6627;50.920;12.050;2023-12-20T09:52:32;6.60;99.90
13123;DHT22;6627;50.920;12.050;2023-12-20T09:55:15;6.70;99.90
13123;DHT22;6627;50.920;12.050;2023-12-20T09:57:56;6.70;99.90
13123;DHT22;6627;50.920;12.050;2023-12-20T10:00:43;6.70;99.90
13123;DHT22;6627;50.920;12.050;2023-12-20T10:03:19;6.70;99.90
13123;DHT22;6627;50.920;12.050;2023-12-20T10:05:54;6.60;99.90
13123;DHT22;6627;50.920;12.050;2023-12-20T10:08:24;6.70;99.90
13123;DHT22;6627;50.920;12.050;2023-12-20T10:13:47;6.70;99.90
13123;DHT22;6627;50.920;12.050;2023-12-20T10:16:25;6.70;99.90
13123;DHT22;6627;50.920;12.050;2023-12-20T10:18:55;6.80;99.90
13123;DHT22;6627;50.920;12.050;2023-12-20T10:24:00;6.80;99.90
13123;DHT22;6627;50.920;12.050;2023-12-20T10:26:28;6.90;99.90
13123;DHT22;6627;50.920;12.050;2023-12-20T10:28:56;6.90;99.90
13123;DHT22;6627;50.920;12.050;2023-12-20T10:31:34;7.00;99.90
13123;DHT22;6627;50.920;12.050;2023-12-20T10:34:24;7.00;99.90
13123;DHT22;6627;50.920;12.050;2023-12-20T10:36:52;7.00;99.90
13123;DHT22;6627;50.920;12.050;2023-12-20T10:39:21;7.20;99.90
13123;DHT22;6627;50.920;12.050;2023-12-20T10:41:50;7.10;99.90
13123;DHT22;6627;50.920;12.050;2023-12-20T10:44:19;7.10;99.90
13123;DHT22;6627;50.920;12.050;2023-12-20T10:46:46;7.10;99.90
13123;DHT22;6627;50.920;12.050;2023-12-20T10:49:17;7.10;99.90
13123;DHT22;6627;50.920;12.050;2023-12-20T10:51:50;7.10;99.90
13123;DHT22;6627;50.920;12.050;2023-12-20T10:56:52;7.30;99.90
13123;DHT22;6627;50.920;12.050;2023-12-20T10:59:36;7.50;99.90
13123;DHT22;6627;50.920;12.050;2023-12-20T11:02:25;7.80;99.90
13123;DHT22;6627;50.920;12.050;2023-12-20T11:05:10;7.80;99.90
13123;DHT22;6627;50.920;12.050;2023-12-20T11:08:13;7.50;99.90
13123;DHT22;6627;50.920;12.050;2023-12-20T11:13:26;7.70;99.90
13123;DHT22;6627;50.920;12.050;2023-12-20T11:15:59;7.70;99.90
13123;DHT22;6627;50.920;12.050;2023-12-20T11:18:30;7.60;99.90
13123;DHT22;6627;50.920;12.050;2023-12-20T11:21:00;7.80;99.90
13123;DHT22;6627;50.920;12.050;2023-12-20T11:23:50;8.00;99.90
13123;DHT22;6627;50.920;12.050;2023-12-20T11:26:22;7.90;99.90
13123;DHT22;6627;50.920;12.050;2023-12-20T11:28:54;7.80;99.90
13123;DHT22;6627;50.920;12.050;2023-12-20T11:31:21;7.80;99.90
13123;DHT22;6627;50.920;12.050;2023-12-20T11:33:49;8.20;99.90
13123;DHT22;6627;50.920;12.050;2023-12-20T11:36:19;7.80;99.90
13123;DHT22;6627;50.920;12.050;2023-12-20T11:38:54;7.90;99.90
13123;DHT22;6627;50.920;12.050;2023-12-20T11:41:23;7.90;99.90
13123;DHT22;6627;50.920;12.050;2023-12-20T11:43:53;7.90;99.90
13123;DHT22;6627;50.920;12.050;2023-12-20T11:46:21;8.00;99.90
13123;DHT22;6627;50.920;12.050;2023-12-20T11:49:00;8.00;99.90
13123;DHT22;6627;50.920;12.050;2023-12-20T11:51:48;7.80;99.90
13123;DHT22;6627;50.920;12.050;2023-12-20T11:54:35;8.00;99.90
13123;DHT22;6627;50.920;12.050;2023-12-20T11:57:17;8.40;99.90
13123;DHT22;6627;50.920;12.050;2023-12-20T11:59:55;8.30;99.90
13123;DHT22;6627;50.920;12.050;2023-12-20T12:02:33;8.30;99.90
13123;DHT22;6627;50.920;12.050;2023-12-20T12:05:07;8.40;99.90
13123;DHT22;6627;50.920;12.050;2023-12-20T12:07:54;8.50;99.90
13123;DHT22;6627;50.920;12.050;2023-12-20T12:12:54;8.30;99.90
13123;DHT22;6627;50.920;12.050;2023-12-20T12:15:26;8.30;99.90
13123;DHT22;6627;50.920;12.050;2023-12-20T12:18:02;8.40;99.90
13123;DHT22;6627;50.920;12.050;2023-12-20T12:20:50;8.20;99.90
13123;DHT22;6627;50.920;12.050;2023-12-20T12:23:44;8.30;99.90
13123;DHT22;6627;50.920;12.050;2023-12-20T12:29:20;8.20;99.90
13123;DHT22;6627;50.920;12.050;2023-12-20T12:32:05;8.20;99.90
13123;DHT22;6627;50.920;12.050;2023-12-20T12:34:35;8.00;99.90
13123;DHT22;6627;50.920;12.050;2023-12-20T12:37:10;7.90;99.90
13123;DHT22;6627;50.920;12.050;2023-12-20T12:39:53;7.80;99.90
13123;DHT22;6627;50.920;12.050;2023-12-20T12:42:22;7.60;99.90
13123;DHT22;6627;50.920;12.050;2023-12-20T12:45:01;7.50;99.90
13123;DHT22;6627;50.920;12.050;2023-12-20T12:47:29;7.50;99.90
13123;DHT22;6627;50.920;12.050;2023-12-20T12:49:57;7.40;99.90
13123;DHT22;6627;50.920;12.050;2023-12-20T12:52:25;7.40;99.90
13123;DHT22;6627;50.920;12.050;2023-12-20T12:55:12;7.40;99.90
13123;DHT22;6627;50.920;12.050;2023-12-20T12:57:41;7.50;99.90
13123;DHT22;6627;50.920;12.050;2023-12-20T13:00:10;7.40;99.90
13123;DHT22;6627;50.920;12.050;2023-12-20T13:02:38;7.50;99.90
13123;DHT22;6627;50.920;12.050;2023-12-20T13:05:15;7.40;99.90
13123;DHT22;6627;50.920;12.050;2023-12-20T13:08:03;7.40;99.90
13123;DHT22;6627;50.920;12.050;2023-12-20T13:10:51;7.40;99.90
13123;DHT22;6627;50.920;12.050;2023-12-20T13:13:20;7.40;99.90
13123;DHT22;6627;50.920;12.050;2023-12-20T13:15:47;7.40;99.90
13123;DHT22;6627;50.920;12.050;2023-12-20T13:18:18;7.50;99.90
13123;DHT22;6627;50.920;12.050;2023-12-20T13:20:45;7.50;99.90
13123;DHT22;6627;50.920;12.050;2023-12-20T13:23:32;7.60;99.90
13123;DHT22;6627;50.920;12.050;2023-12-20T13:26:12;7.60;99.90
13123;DHT22;6627;50.920;12.050;2023-12-20T13:31:28;7.60;99.90
13123;DHT22;6627;50.920;12.050;2023-12-20T13:33:56;7.60;99.90
13123;DHT22;6627;50.920;12.050;2023-12-20T13:39:09;7.50;99.90
13123;DHT22;6627;50.920;12.050;2023-12-20T13:41:48;7.50;99.90
13123;DHT22;6627;50.920;12.050;2023-12-20T13:44:17;7.50;99.90
13123;DHT22;6627;50.920;12.050;2023-12-20T13:46:53;7.90;99.90
13123;DHT22;6627;50.920;12.050;2023-12-20T13:49:20;7.60;99.90
13123;DHT22;6627;50.920;12.050;2023-12-20T13:51:54;7.50;99.90
13123;DHT22;6627;50.920;12.050;2023-12-20T13:54:23;7.70;99.90
13123;DHT22;6627;50.920;12.050;2023-12-20T13:57:07;7.40;99.90
13123;DHT22;6627;50.920;12.050;2023-12-20T13:59:41;7.40;99.90
13123;DHT22;6627;50.920;12.050;2023-12-20T14:02:08;7.30;99.90
13123;DHT22;6627;50.920;12.050;2023-12-20T14:04:40;7.20;99.90
13123;DHT22;6627;50.920;12.050;2023-12-20T14:07:07;7.20;99.90
13123;DHT22;6627;50.920;12.050;2023-12-20T14:09:35;7.20;99.90
13123;DHT22;6627;50.920;12.050;2023-12-20T14:12:03;7.20;99.90
13123;DHT22;6627;50.920;12.050;2023-12-20T14:14:40;7.10;99.90
13123;DHT22;6627;50.920;12.050;2023-12-20T14:17:08;7.10;99.90
13123;DHT22;6627;50.920;12.050;2023-12-20T14:19:36;7.10;99.90
13123;DHT22;6627;50.920;12.050;2023-12-20T14:22:04;7.00;99.90
13123;DHT22;6627;50.920;12.050;2023-12-20T14:24:32;7.00;99.90
13123;DHT22;6627;50.920;12.050;2023-12-20T14:27:01;6.90;99.90
13123;DHT22;6627;50.920;12.050;2023-12-20T14:29:41;6.90;99.90
13123;DHT22;6627;50.920;12.050;2023-12-20T14:32:08;6.80;99.90
13123;DHT22;6627;50.920;12.050;2023-12-20T14:34:47;6.90;99.90
13123;DHT22;6627;50.920;12.050;2023-12-20T14:37:21;7.00;99.90
13123;DHT22;6627;50.920;12.050;2023-12-20T14:39:51;6.70;99.90
13123;DHT22;6627;50.920;12.050;2023-12-20T14:42:18;6.80;99.90
13123;DHT22;6627;50.920;12.050;2023-12-20T14:45:04;7.10;99.90
13123;DHT22;6627;50.920;12.050;2023-12-20T14:47:33;6.70;99.90
13123;DHT22;6627;50.920;12.050;2023-12-20T14:50:02;6.80;99.90
13123;DHT22;6627;50.920;12.050;2023-12-20T14:52:46;6.70;99.90
13123;DHT22;6627;50.920;12.050;2023-12-20T14:55:15;6.70;99.90
13123;DHT22;6627;50.920;12.050;2023-12-20T14:57:43;6.70;99.90
13123;DHT22;6627;50.920;12.050;2023-12-20T15:00:12;6.70;99.90
13123;DHT22;6627;50.920;12.050;2023-12-20T15:03:01;6.70;99.90
13123;DHT22;6627;50.920;12.050;2023-12-20T15:05:47;6.70;99.90
13123;DHT22;6627;50.920;12.050;2023-12-20T15:08:15;6.70;99.90
13123;DHT22;6627;50.920;12.050;2023-12-20T15:10:42;6.70;99.90
13123;DHT22;6627;50.920;12.050;2023-12-20T15:13:09;6.80;99.90
13123;DHT22;6627;50.920;12.050;2023-12-20T15:15:40;6.70;99.90
13123;DHT22;6627;50.920;12.050;2023-12-20T15:18:07;6.70;99.90
13123;DHT22;6627;50.920;12.050;2023-12-20T15:20:34;6.70;99.90
13123;DHT22;6627;50.920;12.050;2023-12-20T15:23:04;6.70;99.90
13123;DHT22;6627;50.920;12.050;2023-12-20T15:25:53;6.70;99.90
13123;DHT22;6627;50.920;12.050;2023-12-20T15:28:20;6.70;99.90
13123;DHT22;6627;50.920;12.050;2023-12-20T15:30:48;6.70;99.90
13123;DHT22;6627;50.920;12.050;2023-12-20T15:33:16;6.70;99.90
13123;DHT22;6627;50.920;12.050;2023-12-20T15:35:44;6.60;99.90
13123;DHT22;6627;50.920;12.050;2023-12-20T15:38:19;6.70;99.90
13123;DHT22;6627;50.920;12.050;2023-12-20T15:40:46;6.70;99.90
13123;DHT22;6627;50.920;12.050;2023-12-20T15:43:34;6.70;99.90
13123;DHT22;6627;50.920;12.050;2023-12-20T15:46:16;6.70;99.90
13123;DHT22;6627;50.920;12.050;2023-12-20T15:48:59;6.70;99.90
13123;DHT22;6627;50.920;12.050;2023-12-20T15:51:46;6.70;99.90
13123;DHT22;6627;50.920;12.050;2023-12-20T15:54:14;6.70;99.90
13123;DHT22;6627;50.920;12.050;2023-12-20T15:56:41;6.80;99.90
13123;DHT22;6627;50.920;12.050;2023-12-20T15:59:12;6.80;99.90
13123;DHT22;6627;50.920;12.050;2023-12-20T16:01:41;6.80;99.90
13123;DHT22;6627;50.920;12.050;2023-12-20T16:04:09;6.80;99.90
13123;DHT22;6627;50.920;12.050;2023-12-20T16:09:08;6.80;99.90
13123;DHT22;6627;50.920;12.050;2023-12-20T16:11:55;6.80;99.90
13123;DHT22;6627;50.920;12.050;2023-12-20T16:14:23;7.00;99.90
13123;DHT22;6627;50.920;12.050;2023-12-20T16:16:54;6.80;99.90
13123;DHT22;6627;50.920;12.050;2023-12-20T16:19:21;6.80;99.90
13123;DHT22;6627;50.920;12.050;2023-12-20T16:22:04;6.80;99.90
13123;DHT22;6627;50.920;12.050;2023-12-20T16:24:31;6.80;99.90
13123;DHT22;6627;50.920;12.050;2023-12-20T16:27:03;6.80;99.90
13123;DHT22;6627;50.920;12.050;2023-12-20T16:29:48;6.80;99.90
13123;DHT22;6627;50.920;12.050;2023-12-20T16:32:17;6.80;99.90
13123;DHT22;6627;50.920;12.050;2023-12-20T16:34:45;6.90;99.90
13123;DHT22;6627;50.920;12.050;2023-12-20T16:37:15;6.90;99.90
13123;DHT22;6627;50.920;12.050;2023-12-20T16:39:42;6.90;99.90
13123;DHT22;6627;50.920;12.050;2023-12-20T16:42:14;6.90;99.90
13123;DHT22;6627;50.920;12.050;2023-12-20T16:44:50;6.90;99.90
13123;DHT22;6627;50.920;12.050;2023-12-20T16:47:20;6.90;99.90
13123;DHT22;6627;50.920;12.050;2023-12-20T16:49:50;6.90;99.90
13123;DHT22;6627;50.920;12.050;2023-12-20T16:52:27;6.90;99.90
13123;DHT22;6627;50.920;12.050;2023-12-20T16:54:54;6.30;99.90
13123;DHT22;6627;50.920;12.050;2023-12-20T16:57:22;6.90;99.90
13123;DHT22;6627;50.920;12.050;2023-12-20T16:59:49;7.00;99.90
13123;DHT22;6627;50.920;12.050;2023-12-20T17:02:22;6.90;99.90
13123;DHT22;6627;50.920;12.050;2023-12-20T17:04:51;6.90;99.90
13123;DHT22;6627;50.920;12.050;2023-12-20T17:07:19;6.90;99.90